createdAt,value
2022-12-09T00:02:30.386Z,99552.16
2022-12-09T00:07:36.541Z,99548.85
2022-12-09T00:12:39.907Z,99547.25
2022-12-09T00:17:43.369Z,99549.17
2022-12-09T00:22:46.919Z,99545.27
2022-12-09T00:27:50.512Z,99547.32
2022-12-09T00:32:53.977Z,99547.14
2022-12-09T00:37:57.205Z,99551.39
2022-12-09T00:43:00.651Z,99548.27
2022-12-09T00:48:05.855Z,99555.02
2022-12-09T00:53:10.789Z,99561.23
2022-12-09T00:58:14.080Z,99557.23
2022-12-09T01:03:18.559Z,99561.59
2022-12-09T01:08:22.748Z,99565.13
2022-12-09T01:13:26.195Z,99561.01
2022-12-09T01:18:31.600Z,99555.60
2022-12-09T01:23:38.303Z,99555.77
2022-12-09T01:28:44.392Z,99556.48
2022-12-09T01:33:49.225Z,99560.77
2022-12-09T01:38:53.190Z,99556.90
2022-12-09T01:44:09.308Z,99554.48
2022-12-09T01:49:17.816Z,99559.80
2022-12-09T01:54:22.077Z,99560.46
2022-12-09T01:59:26.628Z,99554.00
2022-12-09T02:04:41.234Z,99547.72
2022-12-09T02:09:53.677Z,99545.95
2022-12-09T02:15:19.693Z,99548.40
2022-12-09T02:20:27.581Z,99548.36
2022-12-09T02:25:43.268Z,99552.23
2022-12-09T02:30:56.023Z,99550.62
2022-12-09T02:36:10.428Z,99545.75
2022-12-09T02:41:21.892Z,99542.20
2022-12-09T02:46:28.524Z,99543.08
2022-12-09T02:51:36.053Z,99545.38
2022-12-09T02:56:42.314Z,99543.08
2022-12-09T03:02:15.887Z,99540.59
2022-12-09T03:07:31.601Z,99534.72
2022-12-09T03:12:35.652Z,99532.83
2022-12-09T03:17:41.671Z,99536.02
2022-12-09T03:22:48.256Z,99532.52
2022-12-09T03:27:57.770Z,99531.23
2022-12-09T03:33:03.012Z,99527.27
2022-12-09T03:38:10.897Z,99523.20
2022-12-09T03:43:23.672Z,99519.62
2022-12-09T03:48:27.344Z,99518.27
2022-12-09T03:53:40.247Z,99517.10
2022-12-09T03:58:45.388Z,99516.83
2022-12-09T04:03:50.822Z,99511.56
2022-12-09T04:08:59.352Z,99511.75
2022-12-09T04:14:09.150Z,99504.89
2022-12-09T04:19:16.207Z,99506.60
2022-12-09T04:24:20.180Z,99509.08
2022-12-09T04:29:23.839Z,99504.54
2022-12-09T04:34:27.333Z,99508.72
2022-12-09T04:39:31.373Z,99517.66
2022-12-09T04:44:35.829Z,99520.98
2022-12-09T04:49:39.626Z,99520.98
2022-12-09T04:54:43.265Z,99520.39
2022-12-09T04:59:46.533Z,99526.48
2022-12-09T05:04:50.238Z,99533.01
2022-12-09T05:09:54.706Z,99535.69
2022-12-09T05:14:59.572Z,99538.86
2022-12-09T05:20:07.188Z,99535.95
2022-12-09T05:25:13.434Z,99540.06
2022-12-09T05:30:17.967Z,99538.89
2022-12-09T05:35:22.002Z,99542.63
2022-12-09T05:40:26.410Z,99547.10
2022-12-09T05:45:42.078Z,99549.70
2022-12-09T05:50:46.122Z,99552.25
2022-12-09T05:55:49.781Z,99548.97
2022-12-09T06:00:58.097Z,99548.26
2022-12-09T06:06:22.353Z,99552.27
2022-12-09T06:11:27.685Z,99545.91
2022-12-09T06:16:34.888Z,99548.69
2022-12-09T06:21:43.074Z,99546.02
2022-12-09T06:26:47.100Z,99545.27
2022-12-09T06:31:50.815Z,99539.50
2022-12-09T06:36:54.962Z,99539.21
2022-12-09T06:42:00.003Z,99540.40
2022-12-09T06:47:06.914Z,99543.58
2022-12-09T06:52:11.855Z,99540.50
2022-12-09T06:57:15.550Z,99541.54
2022-12-09T07:02:21.722Z,99538.58
2022-12-09T07:07:27.029Z,99535.56
2022-12-09T07:12:30.922Z,99535.79
2022-12-09T07:17:34.838Z,99534.45
2022-12-09T07:22:39.056Z,99532.66
2022-12-09T07:27:48.520Z,99535.46
2022-12-09T07:32:55.266Z,99541.35
2022-12-09T07:37:58.747Z,99541.86
2022-12-09T07:43:02.503Z,99544.72
2022-12-09T07:48:09.421Z,99549.16
2022-12-09T07:53:12.974Z,99554.64
2022-12-09T07:58:17.026Z,99556.75
2022-12-09T08:03:24.673Z,99554.66
2022-12-09T08:08:28.468Z,99553.67
2022-12-09T08:13:32.897Z,99557.91
2022-12-09T08:18:37.494Z,99561.83
2022-12-09T08:23:41.465Z,99563.73
2022-12-09T08:28:46.109Z,99562.31
2022-12-09T08:33:50.665Z,99559.50
2022-12-09T08:38:55.586Z,99560.16
2022-12-09T08:43:59.255Z,99561.09
2022-12-09T08:49:04.445Z,99566.66
2022-12-09T08:54:12.225Z,99562.42
2022-12-09T08:59:17.107Z,99561.48
2022-12-09T09:04:23.235Z,99554.73
2022-12-09T09:09:29.864Z,99553.73
2022-12-09T09:14:37.057Z,99552.11
2022-12-09T09:19:40.991Z,99548.25
2022-12-09T09:24:50.500Z,99543.84
2022-12-09T09:29:55.612Z,99538.64
2022-12-09T09:35:01.505Z,99534.64
2022-12-09T09:45:38.587Z,99535.60
2022-12-09T09:51:07.889Z,99533.34
2022-12-09T09:56:34.593Z,99526.19
2022-12-09T10:01:39.551Z,99519.23
2022-12-09T10:06:50.817Z,99515.15
2022-12-09T10:12:20.313Z,99512.31
2022-12-09T10:17:41.122Z,99507.31
2022-12-09T10:22:56.626Z,99504.70
2022-12-09T10:28:23.892Z,99502.81
2022-12-09T10:33:33.404Z,99504.93
2022-12-09T10:38:39.709Z,99502.14
2022-12-09T10:43:44.549Z,99500.02
2022-12-09T10:48:59.239Z,99495.53
2022-12-09T10:54:27.028Z,99486.66
2022-12-09T10:59:38.246Z,99477.52
2022-12-09T11:04:51.134Z,99466.95
2022-12-09T11:09:58.114Z,99460.93
2022-12-09T11:15:05.930Z,99458.02
2022-12-09T11:26:06.285Z,99439.60
2022-12-09T11:31:38.964Z,99436.59
2022-12-09T11:37:01.592Z,99434.49
2022-12-09T11:42:22.870Z,99431.20
2022-12-09T11:48:24.113Z,99431.95
2022-12-09T11:53:24.773Z,99429.63
2022-12-09T11:59:02.284Z,99423.31
2022-12-09T12:04:11.389Z,99418.15
2022-12-09T12:09:27.099Z,99411.86
2022-12-09T12:14:37.395Z,99408.88
2022-12-09T12:19:45.962Z,99406.15
2022-12-09T12:25:20.567Z,99405.94
2022-12-09T12:30:36.165Z,99410.27
2022-12-09T12:36:20.737Z,99409.75
2022-12-09T12:42:01.987Z,99407.20
2022-12-09T12:48:32.711Z,99403.44
2022-12-09T12:54:29.431Z,99400.99
2022-12-09T13:00:16.191Z,99399.56
2022-12-09T13:05:25.536Z,99393.86
2022-12-09T13:10:38.010Z,99394.70
2022-12-09T13:16:49.016Z,99393.80
2022-12-09T13:22:05.964Z,99396.80
2022-12-09T13:27:24.757Z,99396.43
2022-12-09T13:32:37.058Z,99392.86
2022-12-09T13:37:43.490Z,99395.98
2022-12-09T13:43:04.488Z,99397.05
2022-12-09T13:48:16.535Z,99400.42
2022-12-09T13:53:23.544Z,99402.80
2022-12-09T13:58:47.844Z,99400.56
2022-12-09T14:04:16.481Z,99407.39
2022-12-09T14:09:49.640Z,99393.62
2022-12-09T14:15:06.049Z,99392.31
2022-12-09T14:20:17.897Z,99387.69
2022-12-09T14:25:28.750Z,99386.98
2022-12-09T14:30:35.212Z,99370.71
2022-12-09T14:36:07.580Z,99349.77
2022-12-09T14:41:36.527Z,99345.27
2022-12-09T14:46:48.367Z,99338.10
2022-12-09T14:52:05.877Z,99335.88
2022-12-09T14:57:46.778Z,99331.11
2022-12-09T15:03:23.077Z,99317.99
2022-12-09T15:08:40.686Z,99322.53
2022-12-09T15:13:47.197Z,99323.13
2022-12-09T15:18:53.419Z,99324.55
2022-12-09T15:23:59.974Z,99328.91
2022-12-09T15:29:05.874Z,99331.75
2022-12-09T15:34:20.468Z,99322.91
2022-12-09T15:39:34.680Z,99315.55
2022-12-09T15:44:57.058Z,99318.94
2022-12-09T15:50:10.935Z,99314.98
2022-12-09T15:55:16.955Z,99312.56
2022-12-09T16:00:25.684Z,99315.23
2022-12-09T16:05:37.182Z,99305.68
2022-12-09T16:17:28.827Z,99305.81
2022-12-09T16:22:54.952Z,99311.20
2022-12-09T16:28:02.585Z,99313.09
2022-12-09T16:33:18.827Z,99296.65
2022-12-09T16:38:30.519Z,99304.41
2022-12-09T16:43:41.655Z,99305.95
2022-12-09T16:48:51.032Z,99307.84
2022-12-09T16:53:59.149Z,99314.58
2022-12-09T16:59:02.842Z,99305.39
2022-12-09T17:04:21.760Z,99289.91
2022-12-09T17:09:30.632Z,99282.71
2022-12-09T17:14:37.195Z,99275.08
2022-12-09T17:19:42.393Z,99279.71
2022-12-09T17:24:45.922Z,99289.95
2022-12-09T17:29:49.507Z,99287.59
2022-12-09T17:34:55.940Z,99289.48
2022-12-09T17:40:03.504Z,99287.11
2022-12-09T17:45:10.812Z,99280.55
2022-12-09T17:50:17.923Z,99281.16
2022-12-09T17:55:21.742Z,99282.51
2022-12-09T18:00:26.033Z,99291.34
2022-12-09T18:05:32.785Z,99285.16
2022-12-09T18:10:39.696Z,99290.80
2022-12-09T18:15:54.408Z,99287.47
2022-12-09T18:21:01.617Z,99289.71
2022-12-09T18:26:13.064Z,99287.67
2022-12-09T18:31:20.769Z,99283.48
2022-12-09T18:36:30.644Z,99285.27
2022-12-09T18:41:48.309Z,99287.67
2022-12-09T18:47:01.729Z,99297.21
2022-12-09T18:52:24.485Z,99296.36
2022-12-09T19:03:19.668Z,99283.33
2022-12-09T19:08:23.954Z,99284.20
2022-12-09T19:13:28.590Z,99283.19
2022-12-09T19:18:34.112Z,99284.42
2022-12-09T19:23:52.751Z,99290.64
2022-12-09T19:29:02.046Z,99286.50
2022-12-09T19:34:35.553Z,99281.92
2022-12-09T19:39:46.789Z,99277.38
2022-12-09T19:45:02.996Z,99272.35
2022-12-09T19:50:12.875Z,99270.68
2022-12-09T19:55:21.070Z,99265.45
2022-12-09T20:01:05.473Z,99271.67
2022-12-09T20:06:28.476Z,99273.42
2022-12-09T20:11:58.130Z,99279.71
2022-12-09T20:17:29.661Z,99282.25
2022-12-09T20:23:02.741Z,99279.88
2022-12-09T20:28:11.762Z,99269.15
2022-12-09T20:33:52.503Z,99274.65
2022-12-09T20:39:23.482Z,99274.75
2022-12-09T20:44:39.451Z,99268.56
2022-12-09T20:50:26.724Z,99277.39
2022-12-09T20:55:56.861Z,99279.77
2022-12-09T21:01:10.061Z,99285.16
2022-12-09T21:06:17.173Z,99289.16
2022-12-09T21:11:37.784Z,99287.77
2022-12-09T21:16:54.126Z,99282.28
2022-12-09T21:22:02.219Z,99282.92
2022-12-09T21:27:08.713Z,99287.30
2022-12-09T21:32:12.062Z,99297.84
2022-12-09T21:37:17.538Z,99291.37
2022-12-09T21:42:21.929Z,99296.66
2022-12-09T21:47:25.787Z,99295.39
2022-12-09T21:52:29.574Z,99294.71
2022-12-09T21:57:36.248Z,99299.35
2022-12-09T22:02:39.806Z,99300.97
2022-12-09T22:07:43.509Z,99302.35
2022-12-09T22:12:47.104Z,99303.04
2022-12-09T22:17:52.929Z,99305.73
2022-12-09T22:22:56.401Z,99297.79
2022-12-09T22:27:59.930Z,99288.08
2022-12-09T22:33:03.425Z,99279.64
2022-12-09T22:38:12.859Z,99290.05
2022-12-09T22:43:37.781Z,99290.10
2022-12-09T22:49:12.029Z,99289.02
2022-12-09T23:00:13.862Z,99289.24
2022-12-09T23:05:17.843Z,99294.06
2022-12-09T23:10:21.614Z,99292.98
2022-12-09T23:15:25.578Z,99301.38
2022-12-09T23:20:36.931Z,99302.96
2022-12-09T23:25:48.939Z,99307.55
2022-12-09T23:30:52.683Z,99307.48
2022-12-09T23:35:56.163Z,99304.72
2022-12-09T23:42:03.981Z,99306.42
2022-12-09T23:47:12.005Z,99306.25
2022-12-09T23:58:02.003Z,99316.61
